Meteo Giornale » Osservazioni meteo Iran » Khoram Abad
ore: 22:30 - Osservazioni Meteo Khoram Abad
Lat. 33° 26' N Lon. 48° 17' E Alt. 1155 metri s.l.m.
21 °C
Sereno
Temp. 24 Ore
14 °C
35 °C
Sud-Est
7.4 Km/h
Dew point -3 °C
Umidità 19 %
Visibilità 10 Km
Il sole sorge alle ore 05:50
Il sole tramonta alle ore 18:42
| Data e Ora | Cielo e Fenomeni | T °C | DP °C | Um. % | Pres. hPa | Vis. km | Vento km/h | |
|---|---|---|---|---|---|---|---|---|
| Oggi h: 22:30 | Sereno | 21 | -3 | 19 | 1013 | 10 | SE 7.4 | |
| Oggi h: 21:30 | Sereno | 22 | -2 | 19 | 1013 | 10 | SE 14.8 | |
| Oggi h: 20:30 | Sereno | 24 | 0 | 20 | 1012 | 10 | N 3.7 | |
| Oggi h: 19:30 | Sereno | 28 | -4 | 12 | 1012 | 10 | S/SO 11.1 | |
| Oggi h: 18:30 | Sereno | 31 | -3 | 10 | 1012 | 10 | O 14.8 | |
| Oggi h: 17:30 | Sereno | 33 | -4 | 9 | 1012 | 10 | O 18.5 | |
| Oggi h: 16:30 | Sereno | 34 | -5 | 7 | 1011 | 10 | O/NO 22.2 | |
| Oggi h: 15:30 | Sereno | 35 | 0 | 10 | 1011 | 10 | O/NO 25.9 | |
| Oggi h: 14:30 | Sereno | 35 | 0 | 10 | 1012 | 10 | O/NO 29.6 | |
| Oggi h: 13:30 | Sereno | 34 | -1 | 10 | 1012 | 10 | O 18.5 | |
| Oggi h: 12:30 | Sereno | 33 | -2 | 10 | 1013 | 10 | O 11.1 | |
| Oggi h: 11:30 | Sereno | 31 | 0 | 13 | 1013 | 10 | O/NO 11.1 | |
| Oggi h: 10:30 | Sereno | 30 | 2 | 16 | 1014 | 10 | NO 11.1 | |
| Oggi h: 09:30 | Sereno | 28 | 1 | 17 | 1014 | 10 | N/NO 7.4 | |
| Oggi h: 08:30 | Sereno | 25 | 1 | 20 | 1014 | 10 | N 0 | |
| Oggi h: 07:30 | Sereno | 20 | -1 | 24 | 1014 | 10 | N 0 | |
| Oggi h: 06:30 | Sereno | 14 | -2 | 32 | 1014 | 10 | SE 7.4 | |
| Oggi h: 05:30 | Sereno | 14 | -2 | 32 | 1013 | 10 | SE 7.4 | |
| Oggi h: 04:30 | Sereno | 16 | -2 | 29 | 1013 | 10 | E/SE 7.4 | |
| Oggi h: 03:30 | Sereno | 16 | 4 | 44 | 1012 | 10 | N 0 | |
| Oggi h: 02:30 | Sereno | 17 | -1 | 29 | 1012 | 10 | N 0 | |
| Oggi h: 01:30 | Sereno | 18 | -2 | 25 | 1012 | 10 | N 0 | |
| Oggi h: 00:30 | Sereno | 20 | -2 | 22 | 1012 | 10 | N 0 | |



